SAOU/LUQ METAR and TAF weather

Enter ICAO airport designator
Station Type Date Time Source
SAOU METAR 2021/09/20 09:30 UTC NOAA

SAOU 200930Z 14011KT 9999 SCT015 BKN020 12/11 Q1021 REDZ RMK ESTIMATED WIND


Station Type Date Time Source
SAOU Decoded METAR 2021/09/20 09:30 UTC NOAA

San Luis Aerodrome, Argentina (SAOU) 33-16S 066-21W 713M
Sep 20, 2021 - 05:30 AM EDT / 2021.09.20 0930 UTC
Wind: from the SE (140 degrees) at 13 MPH (11 KT):0
Visibility: greater than 7 mile(s):0
Sky conditions: mostly cloudy
Temperature: 53 F (12 C)
Dew Point: 51 F (11 C)
Relative Humidity: 93%
Pressure (altimeter): 30.15 in. Hg (1021 hPa)
ob: SAOU 200930Z 14011KT 9999 SCT015 BKN020 12/11 Q1021 REDZ RMK ESTIMATED WIND
cycle: 9

Station Type Date Time Source
SAOU TAF 2021/08/29 06:21 UTC NOAA

TAF SAOU 290500Z 2906/3006 36005KT CAVOK TX27/2918Z TN06/2909Z

Example: see airport list